Time;durP1;ratioP1;P1;durP2;ratioP2;P2;SDS_P1;SDS_P2;PMS_P1;PMS_P2;Temp;Humidity;BMP_temperature;BMP_pressure;BME280_temperature;BME280_humidity;BME280_pressure;Samples;Min_cycle;Max_cycle;Signal;HPM_P1;HPM_P2
2021/11/26 00:00:58;;;;;;;13.00;4.10;;;;;;;;;;5053673;28;20056;-35
2021/11/26 00:03:24;;;;;;;11.30;5.55;;;;;;;;;;5053669;28;20414;-35
2021/11/26 00:05:49;;;;;;;12.73;4.50;;;;;;;;;;5053613;28;20016;-35
2021/11/26 00:08:15;;;;;;;7.72;3.42;;;;;;;;;;5035928;28;20037;-36
2021/11/26 00:10:40;;;;;;;15.85;4.97;;;;;;;;;;5053628;28;20071;-35
2021/11/26 00:13:08;;;;;;;10.48;3.78;;;;;;;;;;5053681;28;20040;-35
2021/11/26 00:18:05;;;;;;;5.88;2.92;;;;;;;;;;5053428;28;20043;-36
2021/11/26 00:20:34;;;;;;;13.88;3.80;;;;;;;;;;5053339;28;20033;-36
2021/11/26 00:22:59;;;;;;;5.65;4.18;;;;;;;;;;5052055;28;20029;-36
2021/11/26 00:25:25;;;;;;;5.82;3.78;;;;;;;;;;5053595;28;20025;-35
2021/11/26 00:27:51;;;;;;;7.75;3.83;;;;;;;;;;5053400;28;20455;-36
2021/11/26 00:30:17;;;;;;;5.45;2.70;;;;;;;;;;5053590;28;20031;-36
2021/11/26 00:32:42;;;;;;;9.30;3.17;;;;;;;;;;5053076;28;20017;-36
2021/11/26 00:35:08;;;;;;;6.82;3.03;;;;;;;;;;5053015;28;20029;-35
2021/11/26 00:37:34;;;;;;;6.78;2.40;;;;;;;;;;5053072;28;20029;-35
2021/11/26 00:39:59;;;;;;;7.15;3.55;;;;;;;;;;5052858;28;20021;-35
2021/11/26 00:42:25;;;;;;;6.50;3.50;;;;;;;;;;5051737;28;20108;-35
2021/11/26 00:44:50;;;;;;;11.15;3.85;;;;;;;;;;5051448;28;20033;-35
2021/11/26 00:47:17;;;;;;;6.65;3.90;;;;;;;;;;5053029;28;20017;-36
2021/11/26 00:49:42;;;;;;;8.35;4.22;;;;;;;;;;5053116;28;20041;-36
2021/11/26 00:52:08;;;;;;;9.32;3.15;;;;;;;;;;5052927;28;20032;-35
2021/11/26 00:54:33;;;;;;;5.75;2.85;;;;;;;;;;5052878;28;20037;-35
2021/11/26 00:56:59;;;;;;;6.28;2.88;;;;;;;;;;5052499;28;20036;-35
2021/11/26 00:59:24;;;;;;;5.35;3.30;;;;;;;;;;5052713;28;20032;-35
2021/11/26 01:01:50;;;;;;;5.28;2.95;;;;;;;;;;5052502;28;20044;-36
2021/11/26 01:04:15;;;;;;;5.00;2.67;;;;;;;;;;5051660;28;20064;-35
2021/11/26 01:06:41;;;;;;;9.45;3.22;;;;;;;;;;5052589;28;20048;-35
2021/11/26 01:09:06;;;;;;;6.25;3.15;;;;;;;;;;5052379;28;20025;-36
2021/11/26 01:11:32;;;;;;;5.15;3.58;;;;;;;;;;5052498;28;20112;-35
2021/11/26 01:13:57;;;;;;;11.85;3.15;;;;;;;;;;5052358;28;20037;-36
2021/11/26 01:16:23;;;;;;;10.82;4.07;;;;;;;;;;5052124;28;20025;-36
2021/11/26 01:18:48;;;;;;;7.40;3.40;;;;;;;;;;5052300;28;20029;-36
2021/11/26 01:21:14;;;;;;;4.30;2.60;;;;;;;;;;5052341;28;20017;-42
2021/11/26 01:23:40;;;;;;;10.02;4.75;;;;;;;;;;5052276;28;20036;-36
2021/11/26 01:26:05;;;;;;;6.10;3.20;;;;;;;;;;5052063;28;20364;-35
2021/11/26 01:28:31;;;;;;;5.55;3.22;;;;;;;;;;5052323;28;20025;-35
2021/11/26 01:30:57;;;;;;;5.25;3.30;;;;;;;;;;5051989;28;20448;-35
2021/11/26 01:33:22;;;;;;;7.18;2.33;;;;;;;;;;5052031;28;20029;-35
2021/11/26 01:35:52;;;;;;;5.72;2.63;;;;;;;;;;5051829;28;20021;-36
2021/11/26 01:38:18;;;;;;;6.18;3.10;;;;;;;;;;5051942;28;20041;-36
2021/11/26 01:40:44;;;;;;;6.93;2.75;;;;;;;;;;5051860;28;20507;-35
2021/11/26 01:43:10;;;;;;;6.15;3.00;;;;;;;;;;5051768;28;20475;-36
2021/11/26 01:45:42;;;;;;;4.93;2.20;;;;;;;;;;5052065;28;20043;-36
2021/11/26 01:48:08;;;;;;;6.50;3.08;;;;;;;;;;5051584;28;20033;-35
2021/11/26 01:50:33;;;;;;;9.27;2.92;;;;;;;;;;5052084;28;20047;-36
2021/11/26 01:52:59;;;;;;;5.35;2.80;;;;;;;;;;5051737;28;20391;-35
2021/11/26 01:55:24;;;;;;;6.40;2.45;;;;;;;;;;5051789;28;20486;-35
2021/11/26 01:57:50;;;;;;;6.03;4.07;;;;;;;;;;5051475;28;20403;-35
2021/11/26 02:00:17;;;;;;;6.85;2.50;;;;;;;;;;5050700;28;20021;-36
2021/11/26 02:02:43;;;;;;;7.20;3.47;;;;;;;;;;5051614;28;20043;-36
2021/11/26 02:05:09;;;;;;;5.25;2.58;;;;;;;;;;5033339;28;20041;-36
2021/11/26 02:07:34;;;;;;;6.10;2.83;;;;;;;;;;5051741;28;20079;-35
2021/11/26 02:10:00;;;;;;;8.90;3.60;;;;;;;;;;5051603;28;20019;-36
2021/11/26 02:12:25;;;;;;;9.82;3.50;;;;;;;;;;5051354;28;20029;-36
2021/11/26 02:14:50;;;;;;;8.98;3.15;;;;;;;;;;5051200;28;20017;-36
2021/11/26 02:17:16;;;;;;;7.75;4.18;;;;;;;;;;5051158;28;20120;-36
2021/11/26 02:19:41;;;;;;;7.03;2.85;;;;;;;;;;5051277;28;20460;-35
2021/11/26 02:22:07;;;;;;;6.22;2.80;;;;;;;;;;5051273;28;20025;-36
2021/11/26 02:24:32;;;;;;;8.23;3.05;;;;;;;;;;5051048;28;20029;-35
2021/11/26 02:26:58;;;;;;;9.75;3.78;;;;;;;;;;5051218;28;20037;-36
2021/11/26 02:29:24;;;;;;;9.43;3.10;;;;;;;;;;5051357;28;20059;-39
2021/11/26 02:31:50;;;;;;;9.07;4.05;;;;;;;;;;5051266;28;20032;-35
2021/11/26 02:34:16;;;;;;;9.48;4.55;;;;;;;;;;5051424;28;20088;-36
2021/11/26 02:36:41;;;;;;;6.95;3.03;;;;;;;;;;5050971;28;20036;-36
2021/11/26 02:39:09;;;;;;;5.80;3.03;;;;;;;;;;5051111;28;20044;-36
2021/11/26 02:41:38;;;;;;;4.50;2.65;;;;;;;;;;5051124;28;20036;-36
2021/11/26 02:44:04;;;;;;;7.13;3.45;;;;;;;;;;5050721;28;20495;-35
2021/11/26 02:46:30;;;;;;;4.80;2.40;;;;;;;;;;5049865;28;20115;-36
2021/11/26 02:48:55;;;;;;;4.70;2.60;;;;;;;;;;5050831;28;20017;-35
2021/11/26 02:51:21;;;;;;;3.97;2.55;;;;;;;;;;5050944;28;20167;-36
2021/11/26 02:53:46;;;;;;;8.25;2.97;;;;;;;;;;5033224;28;20021;-36
2021/11/26 02:56:12;;;;;;;5.35;2.65;;;;;;;;;;5032841;28;20484;-36
2021/11/26 02:58:37;;;;;;;8.55;2.55;;;;;;;;;;5050997;28;20024;-35
2021/11/26 03:01:03;;;;;;;5.68;2.80;;;;;;;;;;5050524;28;20064;-35
2021/11/26 03:03:30;;;;;;;9.27;3.40;;;;;;;;;;5050786;28;20053;-35
2021/11/26 03:05:59;;;;;;;5.28;2.88;;;;;;;;;;5051018;28;20041;-35
2021/11/26 03:08:25;;;;;;;8.18;3.22;;;;;;;;;;5050724;28;21184;-36
2021/11/26 03:10:51;;;;;;;5.47;2.65;;;;;;;;;;5050646;28;20029;-36
2021/11/26 03:13:16;;;;;;;5.60;2.90;;;;;;;;;;5050593;28;20029;-36
2021/11/26 03:15:43;;;;;;;6.13;3.80;;;;;;;;;;5051002;28;20033;-36
2021/11/26 03:18:10;;;;;;;4.38;2.50;;;;;;;;;;5049302;28;20664;-36
2021/11/26 03:20:35;;;;;;;5.47;2.55;;;;;;;;;;5050864;28;20060;-36
2021/11/26 03:23:01;;;;;;;6.68;2.90;;;;;;;;;;5032762;28;20118;-36
2021/11/26 03:25:26;;;;;;;7.68;2.65;;;;;;;;;;5050478;28;20090;-36
2021/11/26 03:27:52;;;;;;;6.70;2.45;;;;;;;;;;5051621;28;20044;-36
2021/11/26 03:30:18;;;;;;;3.20;1.85;;;;;;;;;;5054686;28;20040;-35
2021/11/26 03:32:45;;;;;;;5.63;3.08;;;;;;;;;;5036607;28;20024;-36
2021/11/26 03:35:10;;;;;;;3.67;2.92;;;;;;;;;;5054310;28;20028;-35
2021/11/26 03:37:36;;;;;;;6.40;2.80;;;;;;;;;;5054413;28;20383;-36
2021/11/26 03:40:03;;;;;;;5.05;3.05;;;;;;;;;;5054275;28;20082;-36
2021/11/26 03:42:29;;;;;;;6.13;2.67;;;;;;;;;;5054264;28;20029;-35
2021/11/26 03:44:54;;;;;;;5.38;2.17;;;;;;;;;;5054205;28;20082;-36
2021/11/26 03:47:20;;;;;;;10.70;3.50;;;;;;;;;;5054043;28;20040;-35
2021/11/26 03:49:45;;;;;;;3.20;2.45;;;;;;;;;;5054353;28;20048;-35
2021/11/26 03:52:11;;;;;;;8.50;2.58;;;;;;;;;;5035949;28;20112;-35
2021/11/26 03:54:38;;;;;;;7.10;3.75;;;;;;;;;;5054124;28;20029;-35
2021/11/26 03:57:04;;;;;;;3.15;2.25;;;;;;;;;;5053813;28;20036;-35
2021/11/26 03:59:30;;;;;;;3.85;2.45;;;;;;;;;;5053929;28;20047;-35
2021/11/26 04:01:55;;;;;;;3.42;2.33;;;;;;;;;;5035750;28;20492;-35
2021/11/26 04:04:21;;;;;;;7.45;3.55;;;;;;;;;;5053606;28;20450;-36
2021/11/26 04:06:46;;;;;;;5.65;2.05;;;;;;;;;;5052589;28;20029;-35
2021/11/26 04:09:11;;;;;;;4.65;2.00;;;;;;;;;;5053457;28;20021;-35
2021/11/26 04:11:37;;;;;;;4.10;2.03;;;;;;;;;;5053939;28;20035;-35
2021/11/26 04:14:02;;;;;;;3.92;2.13;;;;;;;;;;5053472;28;20075;-36
2021/11/26 04:16:28;;;;;;;5.32;2.60;;;;;;;;;;5053644;28;20032;-35
2021/11/26 04:18:53;;;;;;;4.35;2.30;;;;;;;;;;5053478;28;20051;-35
2021/11/26 04:21:19;;;;;;;5.18;1.85;;;;;;;;;;5053680;28;20017;-35
2021/11/26 04:23:44;;;;;;;6.63;2.42;;;;;;;;;;5053295;28;20033;-36
2021/11/26 04:26:10;;;;;;;3.45;1.73;;;;;;;;;;5053567;28;20032;-35
2021/11/26 04:28:36;;;;;;;3.83;1.88;;;;;;;;;;5035399;28;20552;-36
2021/11/26 04:31:02;;;;;;;6.13;2.03;;;;;;;;;;5053168;28;20661;-36
2021/11/26 04:33:28;;;;;;;2.78;1.83;;;;;;;;;;5053292;28;20036;-35
2021/11/26 04:35:53;;;;;;;3.45;2.13;;;;;;;;;;5035093;28;20021;-35
2021/11/26 04:38:19;;;;;;;4.22;2.58;;;;;;;;;;5053002;28;20403;-36
2021/11/26 04:40:45;;;;;;;4.65;2.65;;;;;;;;;;5053320;28;20376;-36
2021/11/26 04:43:11;;;;;;;3.58;1.92;;;;;;;;;;5053213;28;20486;-36
2021/11/26 04:45:37;;;;;;;3.85;2.40;;;;;;;;;;5051765;28;20024;-35
2021/11/26 04:48:02;;;;;;;5.13;1.75;;;;;;;;;;5052840;28;20025;-36
2021/11/26 04:50:28;;;;;;;3.35;1.90;;;;;;;;;;5052965;28;20091;-35
2021/11/26 04:52:53;;;;;;;5.03;2.10;;;;;;;;;;5051342;28;20040;-35
2021/11/26 04:55:19;;;;;;;1.83;1.50;;;;;;;;;;5052850;28;20021;-38
2021/11/26 04:57:45;;;;;;;2.75;1.65;;;;;;;;;;5052714;28;20068;-35
2021/11/26 05:00:14;;;;;;;3.47;1.98;;;;;;;;;;5034575;28;20535;-36
2021/11/26 05:02:40;;;;;;;4.88;2.67;;;;;;;;;;5052945;28;20036;-36
2021/11/26 05:05:06;;;;;;;3.20;1.75;;;;;;;;;;5052431;28;20071;-36
2021/11/26 05:07:31;;;;;;;3.00;1.77;;;;;;;;;;5052595;28;20086;-36
2021/11/26 05:09:59;;;;;;;1.83;1.27;;;;;;;;;;5034991;28;20380;-35
2021/11/26 05:12:30;;;;;;;3.28;1.67;;;;;;;;;;5052294;28;20067;-35
2021/11/26 05:14:55;;;;;;;2.72;1.88;;;;;;;;;;5052708;28;20048;-35
2021/11/26 05:17:21;;;;;;;3.13;1.75;;;;;;;;;;5052524;28;20381;-35
2021/11/26 05:19:46;;;;;;;3.95;2.35;;;;;;;;;;5052326;28;20028;-35
2021/11/26 05:22:11;;;;;;;5.57;2.05;;;;;;;;;;5052530;28;20111;-35
2021/11/26 05:24:37;;;;;;;4.00;1.73;;;;;;;;;;5052378;28;20041;-36
2021/11/26 05:27:03;;;;;;;7.40;2.08;;;;;;;;;;5052089;28;20051;-36
2021/11/26 05:29:28;;;;;;;2.40;1.63;;;;;;;;;;5052177;28;20432;-36
2021/11/26 05:31:53;;;;;;;6.22;2.30;;;;;;;;;;5051976;28;20040;-35
2021/11/26 05:34:19;;;;;;;3.13;1.38;;;;;;;;;;5051972;28;20028;-36
2021/11/26 05:36:47;;;;;;;4.35;1.52;;;;;;;;;;5051870;28;20040;-36
2021/11/26 05:39:12;;;;;;;2.42;1.52;;;;;;;;;;5052004;28;20017;-36
2021/11/26 05:41:38;;;;;;;1.73;1.17;;;;;;;;;;5052182;28;20509;-36
2021/11/26 05:44:04;;;;;;;3.22;1.67;;;;;;;;;;5051975;28;20021;-36
2021/11/26 05:46:29;;;;;;;1.98;1.48;;;;;;;;;;5051911;28;20029;-35
2021/11/26 05:48:55;;;;;;;1.80;1.40;;;;;;;;;;5051882;28;20025;-35
2021/11/26 05:51:21;;;;;;;1.77;1.33;;;;;;;;;;5051266;28;20028;-36
2021/11/26 05:53:46;;;;;;;2.50;1.48;;;;;;;;;;5051948;28;20021;-36
2021/11/26 05:56:12;;;;;;;2.10;1.52;;;;;;;;;;5051563;28;20395;-35
2021/11/26 05:58:37;;;;;;;4.28;1.58;;;;;;;;;;5051724;28;20143;-36
2021/11/26 06:01:03;;;;;;;2.28;1.65;;;;;;;;;;5051254;28;20064;-35
2021/11/26 06:03:28;;;;;;;2.65;1.17;;;;;;;;;;5051586;28;20498;-37
2021/11/26 06:05:54;;;;;;;1.60;0.88;;;;;;;;;;5051518;28;20025;-36
2021/11/26 06:08:19;;;;;;;3.15;1.70;;;;;;;;;;5051397;28;20020;-36
2021/11/26 06:10:45;;;;;;;3.67;1.30;;;;;;;;;;5051532;28;20029;-36
2021/11/26 06:13:10;;;;;;;3.10;1.40;;;;;;;;;;5051606;28;20048;-36
2021/11/26 06:15:36;;;;;;;3.05;1.40;;;;;;;;;;5051276;28;20064;-36
2021/11/26 06:18:02;;;;;;;4.57;1.65;;;;;;;;;;5033474;28;20047;-36
2021/11/26 06:20:27;;;;;;;2.03;1.27;;;;;;;;;;5051541;28;20037;-35
2021/11/26 06:22:53;;;;;;;4.18;1.48;;;;;;;;;;5051208;28;20091;-36
2021/11/26 06:25:19;;;;;;;1.58;1.00;;;;;;;;;;5051236;28;20044;-36
2021/11/26 06:27:45;;;;;;;3.90;1.50;;;;;;;;;;5051205;28;20048;-35
2021/11/26 06:30:11;;;;;;;1.35;1.25;;;;;;;;;;5051124;28;20066;-36
2021/11/26 06:32:38;;;;;;;1.75;1.02;;;;;;;;;;5051096;28;20044;-35
2021/11/26 06:35:03;;;;;;;1.77;0.88;;;;;;;;;;5051106;28;20017;-35
2021/11/26 06:37:29;;;;;;;1.98;1.20;;;;;;;;;;5051020;28;20808;-36
2021/11/26 06:39:54;;;;;;;1.67;0.88;;;;;;;;;;5051235;28;20029;-36
2021/11/26 06:42:20;;;;;;;1.15;0.63;;;;;;;;;;5051068;28;20029;-35
2021/11/26 06:44:45;;;;;;;1.02;0.77;;;;;;;;;;5051212;28;20029;-35
2021/11/26 06:47:11;;;;;;;1.58;0.82;;;;;;;;;;5050983;28;20573;-36
2021/11/26 06:49:36;;;;;;;1.40;0.90;;;;;;;;;;5051067;28;20056;-35
2021/11/26 06:52:02;;;;;;;1.52;1.02;;;;;;;;;;5051007;28;20452;-35
2021/11/26 06:54:27;;;;;;;1.10;0.85;;;;;;;;;;5050923;28;20029;-35
2021/11/26 06:56:53;;;;;;;3.33;1.40;;;;;;;;;;5050873;28;20029;-35
2021/11/26 06:59:18;;;;;;;2.78;1.83;;;;;;;;;;5050649;28;20033;-35
2021/11/26 07:01:44;;;;;;;1.67;1.00;;;;;;;;;;5033061;28;20037;-37
2021/11/26 07:04:11;;;;;;;4.70;1.38;;;;;;;;;;5054061;28;20082;-35
2021/11/26 07:06:36;;;;;;;2.65;1.48;;;;;;;;;;5037012;28;20028;-35
2021/11/26 07:09:04;;;;;;;1.77;1.33;;;;;;;;;;5054720;28;20086;-36
2021/11/26 07:11:29;;;;;;;1.17;1.08;;;;;;;;;;5036941;28;20120;-36
2021/11/26 07:13:54;;;;;;;1.73;1.17;;;;;;;;;;5054671;28;20535;-36
2021/11/26 07:16:20;;;;;;;2.70;1.40;;;;;;;;;;5054563;28;20027;-36
2021/11/26 07:18:45;;;;;;;3.63;1.55;;;;;;;;;;5054610;28;20028;-35
2021/11/26 07:21:11;;;;;;;1.52;1.05;;;;;;;;;;5054812;28;20031;-35
2021/11/26 07:23:36;;;;;;;2.67;1.67;;;;;;;;;;5054697;28;20040;-35
2021/11/26 07:26:02;;;;;;;1.50;1.40;;;;;;;;;;5054410;28;20521;-36
2021/11/26 07:28:28;;;;;;;2.17;1.75;;;;;;;;;;5054347;28;20037;-41
2021/11/26 07:30:53;;;;;;;0.80;0.60;;;;;;;;;;5054450;28;20021;-35
2021/11/26 07:33:18;;;;;;;2.15;0.90;;;;;;;;;;5054542;28;20037;-36
2021/11/26 07:35:44;;;;;;;2.33;1.02;;;;;;;;;;5054182;28;20020;-36
2021/11/26 07:38:09;;;;;;;1.70;1.25;;;;;;;;;;5054229;28;20044;-35
2021/11/26 07:40:35;;;;;;;1.48;1.20;;;;;;;;;;5054342;28;20352;-36
2021/11/26 07:43:01;;;;;;;4.65;1.67;;;;;;;;;;5053972;28;20025;-36
2021/11/26 07:45:26;;;;;;;1.52;1.20;;;;;;;;;;5052963;28;20353;-35
2021/11/26 07:47:52;;;;;;;2.13;1.50;;;;;;;;;;5054024;28;20099;-36
2021/11/26 07:50:18;;;;;;;1.30;1.17;;;;;;;;;;5054307;28;20023;-36
2021/11/26 07:52:44;;;;;;;1.40;0.98;;;;;;;;;;5054016;28;20041;-36
2021/11/26 07:55:10;;;;;;;2.97;1.30;;;;;;;;;;5053881;28;20032;-36
2021/11/26 07:57:36;;;;;;;1.95;1.27;;;;;;;;;;5054174;28;20118;-36
2021/11/26 08:00:05;;;;;;;1.63;0.93;;;;;;;;;;5053741;28;20017;-35
2021/11/26 08:02:36;;;;;;;3.22;1.88;;;;;;;;;;5053879;28;20408;-36
2021/11/26 08:05:02;;;;;;;3.20;1.65;;;;;;;;;;5053992;28;20025;-36
2021/11/26 08:07:28;;;;;;;1.80;1.20;;;;;;;;;;5054002;28;20021;-36
2021/11/26 08:09:53;;;;;;;1.48;1.20;;;;;;;;;;5053692;28;20033;-36
2021/11/26 08:12:19;;;;;;;4.65;2.88;;;;;;;;;;5053681;28;20028;-35
2021/11/26 08:14:47;;;;;;;1.58;1.02;;;;;;;;;;5053080;28;20129;-36
2021/11/26 08:17:13;;;;;;;1.60;0.95;;;;;;;;;;5035558;28;20537;-38
2021/11/26 08:19:39;;;;;;;3.65;1.65;;;;;;;;;;5053420;28;20033;-36
2021/11/26 08:22:04;;;;;;;2.22;1.45;;;;;;;;;;5053488;28;20078;-35
2021/11/26 08:24:30;;;;;;;5.22;1.05;;;;;;;;;;5053604;28;20044;-36
2021/11/26 08:26:55;;;;;;;1.35;0.93;;;;;;;;;;5053666;28;20021;-36
2021/11/26 08:29:21;;;;;;;1.13;0.85;;;;;;;;;;5035372;28;20029;-36
2021/11/26 08:31:47;;;;;;;2.25;0.88;;;;;;;;;;5053179;28;20025;-36
2021/11/26 08:34:12;;;;;;;1.08;0.73;;;;;;;;;;5053200;28;20028;-36
2021/11/26 08:36:38;;;;;;;2.30;1.23;;;;;;;;;;5053027;28;20021;-36
2021/11/26 08:39:05;;;;;;;1.27;1.00;;;;;;;;;;5053056;28;20052;-36
2021/11/26 08:41:30;;;;;;;2.08;0.88;;;;;;;;;;5053381;28;20028;-36
2021/11/26 08:43:56;;;;;;;1.17;1.08;;;;;;;;;;5052962;28;20033;-36
2021/11/26 08:46:22;;;;;;;1.13;1.02;;;;;;;;;;5052926;28;20017;-36
2021/11/26 08:48:48;;;;;;;3.40;1.10;;;;;;;;;;5053034;28;20546;-36
2021/11/26 08:51:14;;;;;;;1.33;0.65;;;;;;;;;;5052830;28;20046;-35
2021/11/26 08:53:44;;;;;;;0.95;0.65;;;;;;;;;;5052845;28;20672;-36
2021/11/26 08:56:10;;;;;;;1.52;1.30;;;;;;;;;;5052623;28;20028;-36
2021/11/26 08:58:36;;;;;;;1.63;1.10;;;;;;;;;;5052828;28;20013;-35
2021/11/26 09:01:03;;;;;;;1.75;1.23;;;;;;;;;;5052396;28;20080;-35
2021/11/26 09:03:29;;;;;;;2.15;0.98;;;;;;;;;;5052637;28;20033;-36
2021/11/26 09:05:54;;;;;;;0.60;0.60;;;;;;;;;;5052919;28;20108;-35
2021/11/26 09:08:20;;;;;;;0.80;0.80;;;;;;;;;;5052431;28;20027;-36
2021/11/26 09:10:47;;;;;;;2.45;1.40;;;;;;;;;;5034747;28;20377;-35
2021/11/26 09:13:14;;;;;;;1.35;1.10;;;;;;;;;;5052284;28;20017;-36
2021/11/26 09:15:40;;;;;;;1.25;0.75;;;;;;;;;;5034696;28;20040;-36
2021/11/26 09:18:06;;;;;;;1.98;1.00;;;;;;;;;;5052327;28;20024;-35
2021/11/26 09:20:33;;;;;;;1.33;0.90;;;;;;;;;;5052254;28;20380;-35
2021/11/26 09:22:59;;;;;;;1.58;1.02;;;;;;;;;;5052253;28;20540;-36
2021/11/26 09:25:25;;;;;;;1.50;1.25;;;;;;;;;;5051443;28;20033;-36
2021/11/26 09:27:50;;;;;;;2.03;1.00;;;;;;;;;;5052127;28;20029;-36
2021/11/26 09:30:17;;;;;;;1.08;1.00;;;;;;;;;;5052173;28;20036;-36
2021/11/26 09:32:43;;;;;;;0.75;0.75;;;;;;;;;;5052233;28;20056;-37
2021/11/26 09:35:09;;;;;;;1.02;0.70;;;;;;;;;;5052020;28;20453;-36
2021/11/26 09:37:35;;;;;;;1.30;1.00;;;;;;;;;;5034141;28;20044;-36
2021/11/26 09:40:00;;;;;;;1.13;1.00;;;;;;;;;;5034340;28;20028;-36
2021/11/26 09:42:27;;;;;;;2.95;0.98;;;;;;;;;;5051906;28;20059;-36
2021/11/26 09:44:55;;;;;;;1.73;1.33;;;;;;;;;;5052123;28;20052;-35
2021/11/26 09:47:21;;;;;;;2.22;0.93;;;;;;;;;;5051794;28;20025;-35
2021/11/26 09:49:46;;;;;;;1.42;0.70;;;;;;;;;;5051887;28;20036;-36
2021/11/26 09:52:12;;;;;;;0.57;0.57;;;;;;;;;;5033853;28;20028;-36
2021/11/26 09:54:38;;;;;;;1.42;1.08;;;;;;;;;;5051862;28;20024;-36
2021/11/26 09:57:04;;;;;;;2.85;0.85;;;;;;;;;;5051615;28;20390;-37
2021/11/26 09:59:29;;;;;;;1.23;0.93;;;;;;;;;;5052002;28;20033;-36
2021/11/26 10:01:56;;;;;;;1.35;0.90;;;;;;;;;;5051477;28;20132;-36
2021/11/26 10:04:22;;;;;;;0.88;0.77;;;;;;;;;;5033517;28;20132;-36
2021/11/26 10:06:48;;;;;;;1.38;0.90;;;;;;;;;;5051541;28;20124;-36
2021/11/26 10:09:14;;;;;;;2.38;0.82;;;;;;;;;;5051411;28;20450;-36
2021/11/26 10:11:50;;;;;;;1.58;0.88;;;;;;;;;;5051466;28;20100;-36
2021/11/26 10:14:18;;;;;;;1.35;0.98;;;;;;;;;;5051288;28;20048;-36
2021/11/26 10:16:46;;;;;;;5.97;1.23;;;;;;;;;;5033403;28;20514;-35
2021/11/26 10:19:12;;;;;;;2.47;0.93;;;;;;;;;;5051227;28;20036;-35
2021/11/26 10:21:37;;;;;;;2.83;1.45;;;;;;;;;;5051288;28;20017;-39
2021/11/26 10:24:03;;;;;;;1.50;1.00;;;;;;;;;;5051218;28;20096;-36
2021/11/26 10:26:29;;;;;;;2.13;1.20;;;;;;;;;;5051427;28;20112;-36
2021/11/26 10:28:58;;;;;;;1.85;1.25;;;;;;;;;;5051244;28;20028;-36
2021/11/26 10:31:25;;;;;;;1.63;1.20;;;;;;;;;;5051135;28;20048;-39
2021/11/26 10:33:58;;;;;;;1.48;0.98;;;;;;;;;;5051002;28;20557;-35
2021/11/26 10:36:25;;;;;;;4.47;1.88;;;;;;;;;;5033129;28;20102;-36
2021/11/26 10:38:51;;;;;;;2.20;1.45;;;;;;;;;;5050960;28;20037;-35
2021/11/26 10:41:24;;;;;;;1.77;1.10;;;;;;;;;;5050997;28;20029;-35
2021/11/26 10:44:03;;;;;;;3.53;0.98;;;;;;;;;;5050909;28;20025;-35
2021/11/26 10:59:47;;;;;;;2.50;1.40;;;;;;;;;;5051057;28;20029;-36
2021/11/26 11:02:27;;;;;;;1.33;1.00;;;;;;;;;;5050516;28;20526;-36
2021/11/26 11:04:53;;;;;;;4.13;0.95;;;;;;;;;;5050912;28;20138;-36
2021/11/26 11:07:18;;;;;;;2.28;1.30;;;;;;;;;;5050917;28;20538;-35
2021/11/26 11:09:44;;;;;;;7.65;2.03;;;;;;;;;;5050888;28;20100;-36
2021/11/26 11:12:10;;;;;;;3.72;1.33;;;;;;;;;;5050995;28;20024;-36
2021/11/26 11:14:36;;;;;;;3.10;1.20;;;;;;;;;;5050679;28;20048;-36
2021/11/26 11:17:02;;;;;;;2.80;1.33;;;;;;;;;;5050924;28;20037;-36
2021/11/26 11:19:27;;;;;;;4.55;1.38;;;;;;;;;;5050724;28;20104;-35
2021/11/26 11:21:55;;;;;;;2.05;1.30;;;;;;;;;;5050951;28;20471;-35
2021/11/26 11:24:21;;;;;;;7.78;1.30;;;;;;;;;;5050884;28;20052;-36
2021/11/26 11:26:48;;;;;;;2.72;1.50;;;;;;;;;;5050615;28;20491;-36
2021/11/26 11:29:21;;;;;;;1.45;0.98;;;;;;;;;;5050891;28;20040;-35
2021/11/26 11:31:46;;;;;;;3.63;0.88;;;;;;;;;;5033085;28;20028;-36
2021/11/26 11:34:13;;;;;;;3.22;1.27;;;;;;;;;;5050600;28;20025;-36
2021/11/26 11:36:40;;;;;;;2.47;1.20;;;;;;;;;;5050382;28;20243;-36
2021/11/26 11:39:06;;;;;;;2.65;1.10;;;;;;;;;;5050773;28;20087;-36
2021/11/26 11:41:42;;;;;;;2.05;1.25;;;;;;;;;;5050552;28;20021;-36
2021/11/26 11:44:08;;;;;;;2.45;1.35;;;;;;;;;;5050678;28;20029;-36
2021/11/26 11:46:35;;;;;;;2.72;1.20;;;;;;;;;;5050538;28;20120;-36
2021/11/26 11:49:00;;;;;;;3.75;1.35;;;;;;;;;;5051757;28;20056;-36
2021/11/26 11:51:27;;;;;;;2.08;0.73;;;;;;;;;;5054142;28;20468;-35
2021/11/26 11:54:06;;;;;;;3.30;1.48;;;;;;;;;;5053998;28;20033;-35
2021/11/26 11:56:46;;;;;;;4.18;1.80;;;;;;;;;;5053990;28;20029;-36
2021/11/26 11:59:23;;;;;;;10.73;2.13;;;;;;;;;;5053725;28;20546;-40
2021/11/26 12:01:49;;;;;;;5.65;1.52;;;;;;;;;;5053736;28;20110;-35
2021/11/26 12:04:17;;;;;;;4.80;1.08;;;;;;;;;;5053555;28;20029;-35
2021/11/26 12:06:43;;;;;;;2.30;1.45;;;;;;;;;;5053771;28;20041;-36
2021/11/26 12:09:27;;;;;;;7.63;2.03;;;;;;;;;;5053581;28;20064;-36
2021/11/26 12:12:23;;;;;;;3.65;1.20;;;;;;;;;;5053493;28;20464;-36
2021/11/26 12:14:55;;;;;;;1.13;0.93;;;;;;;;;;5045048;28;20068;-36
2021/11/26 12:17:26;;;;;;;1.83;1.23;;;;;;;;;;5053633;28;20056;-35
2021/11/26 12:20:03;;;;;;;2.03;1.05;;;;;;;;;;5053807;28;20048;-36
2021/11/26 12:22:36;;;;;;;1.30;1.02;;;;;;;;;;5053332;28;20027;-36
2021/11/26 12:25:03;;;;;;;;;;;;;;;;;;5054124;28;20044;-36
2021/11/26 12:27:38;;;;;;;1.05;0.70;;;;;;;;;;5053283;28;20539;-35
2021/11/26 12:30:14;;;;;;;1.67;0.88;;;;;;;;;;5053285;28;20043;-35
2021/11/26 12:32:40;;;;;;;5.65;1.20;;;;;;;;;;5053118;28;20082;-36
2021/11/26 12:35:10;;;;;;;2.53;1.15;;;;;;;;;;5053453;28;20021;-36
2021/11/26 12:37:36;;;;;;;12.05;2.35;;;;;;;;;;5053201;28;20044;-35
2021/11/26 12:40:09;;;;;;;7.07;1.50;;;;;;;;;;5052984;28;20375;-35
2021/11/26 12:42:35;;;;;;;5.07;1.73;;;;;;;;;;5053060;28;20495;-35
2021/11/26 12:45:06;;;;;;;4.35;2.05;;;;;;;;;;5052976;28;20740;-36
2021/11/26 12:47:54;;;;;;;8.48;2.05;;;;;;;;;;5052960;28;20051;-35
2021/11/26 12:53:23;;;;;;;2.63;1.65;;;;;;;;;;5052951;28;20387;-36
2021/11/26 12:55:57;;;;;;;5.63;1.80;;;;;;;;;;5052923;28;20037;-36
2021/11/26 12:58:23;;;;;;;1.95;1.10;;;;;;;;;;5052723;28;20049;-35
2021/11/26 13:00:53;;;;;;;2.85;1.27;;;;;;;;;;5034932;28;20047;-36
2021/11/26 13:03:19;;;;;;;1.42;0.70;;;;;;;;;;5034631;28;20043;-35
2021/11/26 13:06:03;;;;;;;2.15;1.45;;;;;;;;;;5052677;28;20547;-35
2021/11/26 13:08:29;;;;;;;4.80;1.20;;;;;;;;;;5052601;28;20502;-36
2021/11/26 13:10:55;;;;;;;2.00;1.08;;;;;;;;;;5052673;28;20029;-36
2021/11/26 13:13:24;;;;;;;1.27;1.17;;;;;;;;;;5052605;28;20031;-35
2021/11/26 13:15:50;;;;;;;2.00;1.10;;;;;;;;;;5052516;28;20017;-35
2021/11/26 13:18:18;;;;;;;2.25;0.93;;;;;;;;;;5052543;28;20434;-35
2021/11/26 13:20:48;;;;;;;1.58;1.15;;;;;;;;;;5052446;28;20043;-35
2021/11/26 13:23:19;;;;;;;2.25;0.93;;;;;;;;;;5052199;28;20047;-35
2021/11/26 13:25:47;;;;;;;1.40;1.05;;;;;;;;;;5052242;28;20494;-35
2021/11/26 13:28:23;;;;;;;1.83;1.35;;;;;;;;;;5050915;28;20013;-35
2021/11/26 13:30:50;;;;;;;1.67;1.17;;;;;;;;;;5052130;28;20083;-36
2021/11/26 13:33:15;;;;;;;2.33;0.95;;;;;;;;;;5052323;28;20486;-36
2021/11/26 13:35:43;;;;;;;0.60;0.60;;;;;;;;;;5052061;28;20059;-36
2021/11/26 13:38:10;;;;;;;2.88;1.50;;;;;;;;;;5051956;28;20267;-36
2021/11/26 13:40:37;;;;;;;0.80;0.68;;;;;;;;;;5052117;28;20032;-35
2021/11/26 13:43:02;;;;;;;2.47;1.27;;;;;;;;;;5051785;28;20050;-36
2021/11/26 13:45:29;;;;;;;2.25;1.20;;;;;;;;;;5051880;28;20036;-36
2021/11/26 13:47:55;;;;;;;1.33;1.00;;;;;;;;;;5051761;28;20020;-36
2021/11/26 13:50:20;;;;;;;3.15;1.50;;;;;;;;;;5051782;28;20033;-36
2021/11/26 13:52:46;;;;;;;0.70;0.70;;;;;;;;;;5051704;28;20486;-36
2021/11/26 13:55:14;;;;;;;0.70;0.70;;;;;;;;;;5051559;28;20037;-35
2021/11/26 13:57:39;;;;;;;3.08;2.53;;;;;;;;;;5051656;28;20116;-35
2021/11/26 14:00:05;;;;;;;2.17;1.20;;;;;;;;;;5051529;28;20163;-36
2021/11/26 14:02:31;;;;;;;4.13;1.40;;;;;;;;;;5051638;28;20037;-36
2021/11/26 14:04:56;;;;;;;2.33;0.77;;;;;;;;;;5051611;28;20029;-35
2021/11/26 14:07:24;;;;;;;2.45;0.95;;;;;;;;;;5051292;28;20029;-35
2021/11/26 14:10:02;;;;;;;4.07;1.02;;;;;;;;;;5051568;28;20489;-35
2021/11/26 14:12:28;;;;;;;2.75;1.38;;;;;;;;;;5050730;28;20450;-35
2021/11/26 14:14:53;;;;;;;3.17;1.13;;;;;;;;;;5051753;28;20017;-35
2021/11/26 14:17:29;;;;;;;4.13;1.67;;;;;;;;;;5051651;28;20044;-35
2021/11/26 14:19:56;;;;;;;2.72;1.55;;;;;;;;;;5051348;28;20081;-36
2021/11/26 14:22:24;;;;;;;1.60;1.00;;;;;;;;;;5051222;28;20440;-35
2021/11/26 14:24:52;;;;;;;1.75;1.48;;;;;;;;;;5051032;28;20079;-35
2021/11/26 14:27:24;;;;;;;5.25;2.33;;;;;;;;;;5051175;28;20056;-35
2021/11/26 14:29:51;;;;;;;8.07;1.88;;;;;;;;;;5051402;28;20444;-35
2021/11/26 14:32:17;;;;;;;2.40;1.10;;;;;;;;;;5051076;28;20028;-35
2021/11/26 14:34:44;;;;;;;3.17;1.27;;;;;;;;;;5051089;28;20044;-36
2021/11/26 14:37:10;;;;;;;5.05;1.63;;;;;;;;;;5051290;28;20036;-35
2021/11/26 14:39:36;;;;;;;2.10;1.33;;;;;;;;;;5051143;28;20356;-35
2021/11/26 14:42:03;;;;;;;5.13;1.67;;;;;;;;;;5049726;28;20066;-36
2021/11/26 14:44:38;;;;;;;3.60;2.10;;;;;;;;;;5051152;28;20036;-35
2021/11/26 14:47:03;;;;;;;2.47;1.35;;;;;;;;;;5050957;28;20025;-36
2021/11/26 14:49:35;;;;;;;1.67;1.23;;;;;;;;;;5051063;28;20075;-35
2021/11/26 14:52:03;;;;;;;2.22;1.30;;;;;;;;;;5050852;28;20029;-35
2021/11/26 14:54:28;;;;;;;10.65;5.18;;;;;;;;;;5051033;28;20353;-35
2021/11/26 14:56:57;;;;;;;5.60;2.55;;;;;;;;;;5050833;28;20039;-35
2021/11/26 14:59:22;;;;;;;4.35;2.70;;;;;;;;;;5050924;28;20451;-36